createdAt,value
2018-09-21T00:01:12.492Z,19.50
2018-09-21T00:03:50.907Z,19.30
2018-09-21T00:06:25.346Z,19.30
2018-09-21T00:08:54.797Z,19.20
2018-09-21T00:11:23.703Z,19.20
2018-09-21T00:13:53.016Z,19.20
2018-09-21T00:16:22.426Z,19.20
2018-09-21T00:18:51.763Z,19.20
2018-09-21T00:21:21.166Z,19.00
2018-09-21T00:23:50.019Z,19.00
2018-09-21T00:26:19.298Z,19.10
2018-09-21T00:28:48.271Z,19.20
2018-09-21T00:31:17.349Z,19.10
2018-09-21T00:33:46.443Z,19.10
2018-09-21T00:36:15.700Z,19.10
2018-09-21T00:38:45.069Z,19.00
2018-09-21T00:41:14.231Z,19.00
2018-09-21T00:43:43.179Z,19.00
2018-09-21T00:46:12.647Z,19.00
2018-09-21T00:48:41.841Z,18.90
2018-09-21T00:51:11.081Z,18.80
2018-09-21T00:53:40.240Z,18.80
2018-09-21T00:56:09.367Z,18.80
2018-09-21T00:58:38.423Z,18.80
2018-09-21T01:01:07.749Z,18.80
2018-09-21T01:03:36.782Z,18.80
2018-09-21T01:06:05.729Z,18.80
2018-09-21T01:08:34.811Z,18.90
2018-09-21T01:11:03.848Z,18.80
2018-09-21T01:13:44.069Z,18.70
2018-09-21T01:16:18.260Z,18.70
2018-09-21T01:18:53.031Z,18.70
2018-09-21T01:21:29.764Z,18.60
2018-09-21T01:24:04.548Z,18.50
2018-09-21T01:26:39.770Z,18.50
2018-09-21T01:29:17.742Z,18.50
2018-09-21T01:31:53.493Z,18.50
2018-09-21T01:34:27.455Z,18.60
2018-09-21T01:37:01.803Z,18.60
2018-09-21T01:39:38.377Z,18.60
2018-09-21T01:42:14.200Z,18.60
2018-09-21T01:44:47.949Z,18.60
2018-09-21T01:47:27.297Z,18.50
2018-09-21T01:50:00.703Z,18.50
2018-09-21T01:52:37.063Z,18.50
2018-09-21T01:55:10.384Z,18.40
2018-09-21T01:57:43.464Z,18.50
2018-09-21T02:00:18.079Z,18.50
2018-09-21T02:02:51.739Z,18.50
2018-09-21T02:05:26.135Z,18.60
2018-09-21T02:08:01.418Z,18.50
2018-09-21T02:10:36.279Z,18.50
2018-09-21T02:13:10.531Z,18.30
2018-09-21T02:15:45.434Z,18.30
2018-09-21T02:18:23.839Z,18.40
2018-09-21T02:20:57.392Z,18.30
2018-09-21T02:23:33.036Z,18.40
2018-09-21T02:26:08.776Z,18.40
2018-09-21T02:28:42.754Z,18.40
2018-09-21T02:31:20.479Z,18.40
2018-09-21T02:33:54.914Z,18.40
2018-09-21T02:36:30.620Z,18.40
2018-09-21T02:39:05.812Z,18.40
2018-09-21T02:41:40.806Z,18.30
2018-09-21T02:44:24.771Z,18.40
2018-09-21T02:47:06.653Z,18.30
2018-09-21T02:49:40.993Z,18.30
2018-09-21T02:52:16.580Z,18.30
2018-09-21T02:54:50.413Z,18.30
2018-09-21T02:57:26.481Z,18.30
2018-09-21T03:00:01.383Z,18.30
2018-09-21T03:02:35.949Z,18.20
2018-09-21T03:05:09.804Z,18.20
2018-09-21T03:07:43.431Z,18.10
2018-09-21T03:10:18.292Z,18.00
2018-09-21T03:13:02.488Z,17.90
2018-09-21T03:15:46.362Z,18.00
2018-09-21T03:18:21.172Z,17.90
2018-09-21T03:20:56.077Z,17.80
2018-09-21T03:23:33.329Z,17.90
2018-09-21T03:26:08.761Z,17.90
2018-09-21T03:28:42.034Z,17.90
2018-09-21T03:31:16.786Z,17.90
2018-09-21T03:33:51.441Z,17.80
2018-09-21T03:36:25.688Z,17.80
2018-09-21T03:38:59.256Z,17.70
2018-09-21T03:41:33.971Z,17.70
2018-09-21T03:44:09.143Z,17.70
2018-09-21T03:46:42.902Z,17.70
2018-09-21T03:49:15.974Z,17.70
2018-09-21T03:51:49.579Z,17.70
2018-09-21T03:54:22.573Z,17.70
2018-09-21T03:56:56.201Z,17.70
2018-09-21T03:59:29.410Z,17.70
2018-09-21T04:02:03.709Z,17.70
2018-09-21T04:04:43.768Z,17.60
2018-09-21T04:07:17.855Z,17.60
2018-09-21T04:09:51.479Z,17.70
2018-09-21T04:12:25.151Z,17.60
2018-09-21T04:15:00.169Z,17.60
2018-09-21T04:17:33.048Z,17.50
2018-09-21T04:20:07.270Z,17.50
2018-09-21T04:22:40.656Z,17.60
2018-09-21T04:25:17.752Z,17.50
2018-09-21T04:27:50.872Z,17.50
2018-09-21T04:30:24.508Z,17.40
2018-09-21T04:33:02.063Z,17.40
2018-09-21T04:35:34.994Z,17.40
2018-09-21T04:38:09.261Z,17.40
2018-09-21T04:40:43.049Z,17.50
2018-09-21T04:43:17.045Z,17.50
2018-09-21T04:45:50.519Z,17.40
2018-09-21T04:48:24.878Z,17.50
2018-09-21T04:50:58.920Z,17.40
2018-09-21T04:53:32.518Z,17.50
2018-09-21T04:56:07.024Z,17.40
2018-09-21T04:58:40.488Z,17.40
2018-09-21T05:01:14.962Z,17.40
2018-09-21T05:03:49.116Z,17.40
2018-09-21T05:06:23.004Z,17.40
2018-09-21T05:08:56.242Z,17.50
2018-09-21T05:11:29.313Z,17.50
2018-09-21T05:14:02.421Z,17.60
2018-09-21T05:16:36.529Z,17.50
2018-09-21T05:19:09.527Z,17.50
2018-09-21T05:21:42.462Z,17.50
2018-09-21T05:24:15.313Z,17.70
2018-09-21T05:26:48.585Z,17.70
2018-09-21T05:29:21.434Z,17.60
2018-09-21T05:31:55.861Z,17.60
2018-09-21T05:34:29.068Z,17.60
2018-09-21T05:37:03.595Z,17.80
2018-09-21T05:39:37.574Z,17.80
2018-09-21T05:42:10.858Z,17.80
2018-09-21T05:44:45.143Z,17.80
2018-09-21T05:47:19.314Z,17.90
2018-09-21T05:49:53.492Z,17.90
2018-09-21T05:52:25.804Z,18.00
2018-09-21T05:54:56.849Z,18.00
2018-09-21T05:57:30.511Z,18.10
2018-09-21T06:00:04.376Z,18.10
2018-09-21T06:02:36.109Z,18.30
2018-09-21T06:05:11.239Z,18.40
2018-09-21T06:07:43.095Z,18.50
2018-09-21T06:10:15.584Z,18.50
2018-09-21T06:12:50.304Z,18.60
2018-09-21T06:15:22.503Z,18.90
2018-09-21T06:17:54.850Z,19.20
2018-09-21T06:20:28.001Z,19.70
2018-09-21T06:23:01.447Z,20.20
2018-09-21T06:25:33.142Z,20.50
2018-09-21T06:28:06.184Z,20.60
2018-09-21T06:30:37.292Z,20.80
2018-09-21T06:33:10.533Z,21.00
2018-09-21T06:35:44.018Z,21.00
2018-09-21T06:38:14.516Z,21.10
2018-09-21T06:40:47.299Z,21.10
2018-09-21T06:43:20.116Z,21.20
2018-09-21T06:45:52.991Z,21.20
2018-09-21T06:48:27.344Z,21.30
2018-09-21T06:51:00.685Z,21.30
2018-09-21T06:53:31.194Z,21.50
2018-09-21T06:56:07.411Z,21.50
2018-09-21T06:58:38.421Z,21.60
2018-09-21T07:01:18.021Z,21.70
2018-09-21T07:03:50.037Z,21.90
2018-09-21T07:06:28.524Z,22.00
2018-09-21T07:09:00.527Z,22.20
2018-09-21T07:11:32.608Z,22.30
2018-09-21T07:14:04.117Z,22.50
2018-09-21T07:16:34.752Z,22.60
2018-09-21T07:19:06.557Z,22.80
2018-09-21T07:21:40.682Z,23.00
2018-09-21T07:24:12.682Z,23.20
2018-09-21T07:26:44.460Z,23.50
2018-09-21T07:29:15.625Z,23.80
2018-09-21T07:31:46.893Z,24.00
2018-09-21T07:34:17.924Z,24.10
2018-09-21T07:36:51.116Z,24.30
2018-09-21T07:39:22.345Z,24.30
2018-09-21T07:41:54.264Z,24.30
2018-09-21T07:44:31.083Z,24.30
2018-09-21T07:47:02.962Z,24.20
2018-09-21T07:49:37.405Z,24.20
2018-09-21T07:52:09.703Z,24.30
2018-09-21T07:54:42.821Z,24.50
2018-09-21T07:57:14.158Z,24.70
2018-09-21T07:59:45.449Z,24.90
2018-09-21T08:02:16.277Z,25.00
2018-09-21T08:04:47.691Z,24.90
2018-09-21T08:07:31.858Z,24.90
2018-09-21T08:10:02.454Z,24.80
2018-09-21T08:12:33.253Z,24.70
2018-09-21T08:15:04.399Z,24.70
2018-09-21T08:17:34.889Z,24.80
2018-09-21T08:20:08.533Z,24.90
2018-09-21T08:22:43.960Z,25.10
2018-09-21T08:25:15.566Z,25.60
2018-09-21T08:27:48.664Z,25.90
2018-09-21T08:30:20.686Z,25.90
2018-09-21T08:32:51.874Z,26.00
2018-09-21T08:35:23.623Z,26.20
2018-09-21T08:37:54.018Z,26.50
2018-09-21T08:40:25.834Z,27.20
2018-09-21T08:42:59.033Z,27.70
2018-09-21T08:45:31.373Z,28.10
2018-09-21T08:48:03.741Z,28.20
2018-09-21T08:50:34.828Z,28.40
2018-09-21T08:53:05.520Z,29.00
2018-09-21T08:55:37.370Z,29.60
2018-09-21T08:58:08.340Z,30.20
2018-09-21T09:00:40.014Z,30.70
2018-09-21T09:03:11.227Z,31.30
2018-09-21T09:05:43.040Z,33.80
2018-09-21T09:08:13.769Z,35.10
2018-09-21T09:10:44.089Z,34.30
2018-09-21T09:13:14.598Z,32.40
2018-09-21T09:15:46.979Z,30.90
2018-09-21T09:18:22.982Z,30.80
2018-09-21T09:20:54.964Z,30.90
2018-09-21T09:23:25.095Z,32.70
2018-09-21T09:25:55.132Z,32.20
2018-09-21T09:28:25.594Z,31.20
2018-09-21T09:30:57.089Z,30.80
2018-09-21T09:33:29.475Z,30.80
2018-09-21T09:36:00.017Z,30.30
2018-09-21T09:38:30.471Z,30.60
2018-09-21T09:41:01.878Z,31.40
2018-09-21T09:43:32.840Z,31.60
2018-09-21T09:46:03.249Z,31.90
2018-09-21T09:48:33.737Z,31.90
2018-09-21T09:51:06.249Z,31.10
2018-09-21T09:53:36.681Z,30.20
2018-09-21T09:56:07.116Z,30.00
2018-09-21T09:58:38.325Z,29.20
2018-09-21T10:01:09.366Z,28.50
2018-09-21T10:03:41.658Z,28.40
2018-09-21T10:06:12.169Z,28.20
2018-09-21T10:08:43.551Z,27.90
2018-09-21T10:11:14.939Z,27.80
2018-09-21T10:13:46.428Z,27.60
2018-09-21T10:16:16.456Z,27.60
2018-09-21T10:18:48.626Z,27.70
2018-09-21T10:21:19.031Z,27.50
2018-09-21T10:23:50.008Z,27.30
2018-09-21T10:26:24.452Z,27.30
2018-09-21T10:29:26.342Z,27.10
2018-09-21T10:31:59.587Z,27.10
2018-09-21T10:34:31.349Z,26.90
2018-09-21T10:37:02.916Z,26.80
2018-09-21T10:39:33.619Z,26.80
2018-09-21T10:42:06.165Z,26.60
2018-09-21T10:44:38.403Z,26.40
2018-09-21T10:47:19.313Z,26.30
2018-09-21T10:50:08.018Z,26.30
2018-09-21T10:52:40.255Z,26.30
2018-09-21T10:55:11.351Z,26.30
2018-09-21T10:57:43.485Z,26.30
2018-09-21T11:00:15.765Z,26.40
2018-09-21T11:02:48.551Z,26.30
2018-09-21T11:05:19.919Z,26.30
2018-09-21T11:07:52.989Z,26.30
2018-09-21T11:10:26.923Z,26.20
2018-09-21T11:12:59.131Z,26.20
2018-09-21T11:15:31.031Z,26.20
2018-09-21T11:18:03.119Z,26.10
2018-09-21T11:20:35.889Z,26.00
2018-09-21T11:23:08.707Z,26.00
2018-09-21T11:25:40.053Z,25.90
2018-09-21T11:28:11.036Z,25.90
2018-09-21T11:30:44.060Z,25.80
2018-09-21T11:33:16.045Z,25.60
2018-09-21T11:35:45.286Z,25.60
2018-09-21T11:38:14.530Z,25.60
2018-09-21T11:40:43.913Z,25.60
2018-09-21T11:43:14.064Z,25.80
2018-09-21T11:45:43.512Z,25.80
2018-09-21T11:48:12.557Z,25.90
2018-09-21T11:50:41.687Z,25.90
2018-09-21T11:53:10.609Z,25.90
2018-09-21T11:55:39.377Z,25.90
2018-09-21T11:58:08.977Z,25.90
2018-09-21T12:00:37.946Z,26.10
2018-09-21T12:03:07.017Z,26.10
2018-09-21T12:05:36.311Z,26.10
2018-09-21T12:08:05.731Z,26.10
2018-09-21T12:10:34.775Z,26.20
2018-09-21T12:13:04.077Z,26.10
2018-09-21T12:15:33.100Z,26.10
2018-09-21T12:18:02.268Z,26.10
2018-09-21T12:20:31.132Z,26.10
2018-09-21T12:23:00.212Z,26.00
2018-09-21T12:25:29.385Z,26.10
2018-09-21T12:27:59.370Z,26.10
2018-09-21T12:30:28.500Z,26.20
2018-09-21T12:32:57.329Z,26.20
2018-09-21T12:35:26.209Z,26.10
2018-09-21T12:37:55.349Z,26.10
2018-09-21T12:40:24.265Z,26.20
2018-09-21T12:42:53.132Z,26.20
2018-09-21T12:45:22.219Z,26.10
2018-09-21T12:47:51.074Z,26.10
2018-09-21T12:50:20.161Z,26.10
2018-09-21T12:52:49.516Z,26.10
2018-09-21T12:55:18.961Z,26.10
2018-09-21T12:57:48.104Z,26.10
2018-09-21T13:00:17.365Z,26.10
2018-09-21T13:02:46.576Z,26.30
2018-09-21T13:05:15.722Z,26.20
2018-09-21T13:07:45.244Z,26.30
2018-09-21T13:10:14.489Z,26.30
2018-09-21T13:12:43.993Z,26.30
2018-09-21T13:15:13.189Z,26.20
2018-09-21T13:17:42.306Z,26.10
2018-09-21T13:20:11.372Z,26.00
2018-09-21T13:22:40.624Z,26.00
2018-09-21T13:25:09.797Z,26.00
2018-09-21T13:27:38.727Z,26.00
2018-09-21T13:30:08.386Z,26.00
2018-09-21T13:32:37.662Z,25.90
2018-09-21T13:35:07.363Z,25.90
2018-09-21T13:37:36.565Z,25.90
2018-09-21T13:40:05.991Z,25.80
2018-09-21T13:42:34.829Z,25.70
2018-09-21T13:45:03.997Z,25.80
2018-09-21T13:47:33.065Z,25.70
2018-09-21T13:50:02.262Z,25.70
2018-09-21T13:52:34.325Z,25.60
2018-09-21T13:55:03.149Z,25.60
2018-09-21T13:57:33.110Z,25.60
2018-09-21T14:00:02.688Z,25.60
2018-09-21T14:02:32.253Z,25.50
2018-09-21T14:05:04.311Z,25.50
2018-09-21T14:07:35.172Z,25.50
2018-09-21T14:10:04.466Z,25.50
2018-09-21T14:12:33.514Z,25.40
2018-09-21T14:15:02.515Z,25.40
2018-09-21T14:17:32.104Z,25.40
2018-09-21T14:20:01.307Z,25.30
2018-09-21T14:22:30.259Z,25.30
2018-09-21T14:24:59.508Z,25.30
2018-09-21T14:27:28.922Z,25.30
2018-09-21T14:29:58.970Z,25.30
2018-09-21T14:32:28.673Z,25.30
2018-09-21T14:34:57.565Z,25.30
2018-09-21T14:37:26.586Z,25.30
2018-09-21T14:39:55.935Z,25.30
2018-09-21T14:42:25.361Z,25.30
2018-09-21T14:44:54.363Z,25.20
2018-09-21T14:47:23.358Z,25.20
2018-09-21T14:49:52.220Z,25.20
2018-09-21T14:52:21.201Z,25.00
2018-09-21T14:54:50.132Z,24.80
2018-09-21T14:57:19.120Z,24.40
2018-09-21T14:59:50.645Z,24.00
2018-09-21T15:02:19.612Z,23.70
2018-09-21T15:04:48.402Z,23.60
2018-09-21T15:07:17.349Z,23.50
2018-09-21T15:09:46.707Z,23.50
2018-09-21T15:12:16.053Z,23.00
2018-09-21T15:14:45.001Z,23.20
2018-09-21T15:17:14.024Z,22.70
2018-09-21T15:19:43.296Z,22.50
2018-09-21T15:22:12.193Z,22.10
2018-09-21T15:24:41.044Z,21.60
2018-09-21T15:27:10.180Z,20.90
2018-09-21T15:29:39.114Z,20.30
2018-09-21T15:32:08.041Z,19.60
2018-09-21T15:34:36.830Z,19.10
2018-09-21T15:37:05.712Z,18.70
2018-09-21T15:39:34.514Z,18.60
2018-09-21T15:42:03.665Z,18.50
2018-09-21T15:44:32.875Z,18.60
2018-09-21T15:47:03.817Z,18.20
2018-09-21T15:49:33.291Z,17.80
2018-09-21T15:52:02.203Z,17.60
2018-09-21T15:54:31.261Z,17.50
2018-09-21T15:57:00.057Z,17.30
2018-09-21T15:59:28.989Z,17.00
2018-09-21T16:01:57.819Z,16.90
2018-09-21T16:04:27.618Z,16.60
2018-09-21T16:06:56.569Z,16.60
2018-09-21T16:09:25.539Z,16.50
2018-09-21T16:11:55.851Z,16.40
2018-09-21T16:14:25.749Z,16.30
2018-09-21T16:16:55.363Z,16.30
2018-09-21T16:19:24.836Z,16.20
2018-09-21T16:21:53.694Z,16.00
2018-09-21T16:24:22.606Z,15.90
2018-09-21T16:26:51.580Z,16.00
2018-09-21T16:29:20.694Z,16.00
2018-09-21T16:31:49.726Z,16.10
2018-09-21T16:34:18.532Z,16.00
2018-09-21T16:36:47.461Z,16.10
2018-09-21T16:39:16.371Z,16.00
2018-09-21T16:41:45.313Z,15.90
2018-09-21T16:44:14.057Z,15.90
2018-09-21T16:46:43.010Z,15.90
2018-09-21T16:49:12.105Z,15.80
2018-09-21T16:51:40.919Z,15.90
2018-09-21T16:54:09.752Z,15.80
2018-09-21T16:56:38.749Z,15.70
2018-09-21T16:59:37.070Z,15.70
2018-09-21T17:02:35.275Z,15.70
2018-09-21T17:05:04.253Z,15.70
2018-09-21T17:07:33.315Z,15.80
2018-09-21T17:10:02.274Z,15.70
2018-09-21T17:12:31.156Z,15.70
2018-09-21T17:15:00.361Z,15.70
2018-09-21T17:17:29.386Z,15.60
2018-09-21T17:19:58.173Z,15.60
2018-09-21T17:22:26.963Z,15.60
2018-09-21T17:24:56.165Z,15.70
2018-09-21T17:27:25.033Z,15.60
2018-09-21T17:29:54.076Z,15.60
2018-09-21T17:32:22.847Z,15.40
2018-09-21T17:34:51.928Z,15.40
2018-09-21T17:37:20.921Z,15.30
2018-09-21T17:39:49.815Z,15.40
2018-09-21T17:42:18.626Z,15.30
2018-09-21T17:44:47.654Z,15.40
2018-09-21T17:47:16.547Z,15.30
2018-09-21T17:49:45.334Z,15.30
2018-09-21T17:52:14.173Z,15.40
2018-09-21T17:54:43.346Z,15.50
2018-09-21T17:57:12.222Z,15.30
2018-09-21T17:59:41.354Z,15.10
2018-09-21T18:02:10.428Z,15.20
2018-09-21T18:04:39.398Z,15.10
2018-09-21T18:07:08.919Z,15.10
2018-09-21T18:09:38.186Z,15.00
2018-09-21T18:12:08.122Z,15.10
2018-09-21T18:14:37.172Z,15.00
2018-09-21T18:17:06.365Z,15.00
2018-09-21T18:19:35.350Z,15.10
2018-09-21T18:22:04.365Z,15.10
2018-09-21T18:24:33.452Z,14.90
2018-09-21T18:27:02.429Z,14.90
2018-09-21T18:29:31.273Z,15.00
2018-09-21T18:32:00.313Z,14.90
2018-09-21T18:34:29.302Z,14.90
2018-09-21T18:36:58.073Z,14.90
2018-09-21T18:39:27.396Z,15.00
2018-09-21T18:41:56.360Z,15.00
2018-09-21T18:44:25.648Z,15.00
2018-09-21T18:46:54.698Z,15.00
2018-09-21T18:49:23.876Z,15.00
2018-09-21T18:51:52.993Z,15.10
2018-09-21T18:54:22.513Z,15.00
2018-09-21T18:56:51.614Z,14.90
2018-09-21T18:59:20.357Z,14.90
2018-09-21T19:01:49.223Z,14.90
2018-09-21T19:04:18.363Z,14.80
2018-09-21T19:06:47.386Z,14.90
2018-09-21T19:09:16.173Z,14.80
2018-09-21T19:11:45.340Z,14.90
2018-09-21T19:14:14.602Z,14.90
2018-09-21T19:16:43.651Z,14.90
2018-09-21T19:19:12.681Z,14.90
2018-09-21T19:21:41.970Z,14.90
2018-09-21T19:24:10.934Z,15.00
2018-09-21T19:26:39.897Z,15.00
2018-09-21T19:29:09.605Z,15.00
2018-09-21T19:31:38.763Z,15.00
2018-09-21T19:34:08.043Z,15.10
2018-09-21T19:36:37.165Z,15.10
2018-09-21T19:39:09.185Z,15.10
2018-09-21T19:41:38.048Z,15.10
2018-09-21T19:44:07.073Z,15.00
2018-09-21T19:46:36.081Z,15.10
2018-09-21T19:49:04.881Z,15.20
2018-09-21T19:51:33.912Z,15.10
2018-09-21T19:54:02.849Z,15.20
2018-09-21T19:56:31.630Z,15.10
2018-09-21T19:59:00.466Z,15.10
2018-09-21T20:01:29.227Z,15.10
2018-09-21T20:04:04.934Z,15.10
2018-09-21T20:06:35.000Z,15.10
2018-09-21T20:09:05.161Z,15.10
2018-09-21T20:11:33.940Z,15.10
2018-09-21T20:14:02.900Z,15.10
2018-09-21T20:16:32.002Z,15.10
2018-09-21T20:19:00.781Z,15.10
2018-09-21T20:21:30.160Z,15.10
2018-09-21T20:23:59.414Z,15.20
2018-09-21T20:26:28.123Z,15.20
2018-09-21T20:28:57.101Z,15.20
2018-09-21T20:31:31.337Z,15.10
2018-09-21T20:34:00.329Z,15.20
2018-09-21T20:36:29.245Z,15.20
2018-09-21T20:38:58.223Z,15.30
2018-09-21T20:41:27.609Z,15.30
2018-09-21T20:43:57.058Z,15.30
2018-09-21T20:46:26.177Z,15.30
2018-09-21T20:48:55.489Z,15.30
2018-09-21T20:51:24.396Z,15.20
2018-09-21T20:53:53.306Z,15.30
2018-09-21T20:56:22.289Z,15.20
2018-09-21T20:58:51.098Z,15.30
2018-09-21T21:01:20.150Z,15.30
2018-09-21T21:03:49.378Z,15.20
2018-09-21T21:06:18.519Z,15.20
2018-09-21T21:08:47.329Z,15.30
2018-09-21T21:11:16.425Z,15.30
2018-09-21T21:13:45.669Z,15.30
2018-09-21T21:16:14.854Z,15.30
2018-09-21T21:18:43.603Z,15.30
2018-09-21T21:21:12.514Z,15.30
2018-09-21T21:23:41.522Z,15.30
2018-09-21T21:26:10.619Z,15.40
2018-09-21T21:28:39.800Z,15.40
2018-09-21T21:31:08.652Z,15.40
2018-09-21T21:33:37.795Z,15.30
2018-09-21T21:36:06.931Z,15.30
2018-09-21T21:38:35.740Z,15.20
2018-09-21T21:41:04.715Z,15.30
2018-09-21T21:43:33.702Z,15.20
2018-09-21T21:46:02.502Z,15.30
2018-09-21T21:48:31.404Z,15.30
2018-09-21T21:51:00.234Z,15.20
2018-09-21T21:53:29.179Z,15.20
2018-09-21T21:55:57.989Z,15.10
2018-09-21T21:58:26.768Z,15.10
2018-09-21T22:01:00.938Z,15.20
2018-09-21T22:03:29.914Z,15.20
2018-09-21T22:05:59.119Z,15.10
2018-09-21T22:08:27.960Z,15.10
2018-09-21T22:10:56.720Z,15.20
2018-09-21T22:13:31.252Z,15.30
2018-09-21T22:16:00.104Z,15.40
2018-09-21T22:18:28.944Z,15.30
2018-09-21T22:20:57.768Z,15.20
2018-09-21T22:23:26.938Z,15.20
2018-09-21T22:25:55.751Z,15.10
2018-09-21T22:28:24.891Z,15.10
2018-09-21T22:30:53.663Z,15.10
2018-09-21T22:33:22.454Z,15.20
2018-09-21T22:35:51.414Z,15.10
2018-09-21T22:38:20.670Z,15.20
2018-09-21T22:40:50.056Z,15.30
2018-09-21T22:43:18.997Z,15.10
2018-09-21T22:45:47.875Z,15.00
2018-09-21T22:48:16.794Z,15.00
2018-09-21T22:50:46.005Z,15.00
2018-09-21T22:53:15.020Z,14.90
2018-09-21T22:55:43.865Z,15.00
2018-09-21T22:58:12.653Z,15.00
2018-09-21T23:00:41.562Z,15.00
2018-09-21T23:03:10.279Z,14.90
2018-09-21T23:05:39.774Z,15.00
2018-09-21T23:08:08.744Z,15.10
2018-09-21T23:10:37.905Z,14.90
2018-09-21T23:13:06.921Z,14.30
2018-09-21T23:15:35.737Z,14.80
2018-09-21T23:18:04.666Z,14.80
2018-09-21T23:20:33.613Z,14.80
2018-09-21T23:23:02.446Z,14.70
2018-09-21T23:25:31.937Z,14.70
2018-09-21T23:28:01.021Z,14.80
2018-09-21T23:30:29.999Z,14.80
2018-09-21T23:32:58.732Z,14.70
2018-09-21T23:35:27.518Z,14.60
2018-09-21T23:37:56.664Z,14.60
2018-09-21T23:40:25.884Z,14.60
2018-09-21T23:42:55.614Z,14.60
2018-09-21T23:45:24.651Z,14.60
2018-09-21T23:47:53.633Z,14.50
2018-09-21T23:50:22.925Z,14.50
2018-09-21T23:52:52.081Z,14.50
2018-09-21T23:55:20.945Z,14.40
2018-09-21T23:57:50.036Z,14.50
